createdAt,value
2017-07-01T03:54:52.702Z,8.60
2017-07-01T03:57:20.006Z,9.23
2017-07-01T03:59:47.009Z,9.97
2017-07-01T04:02:14.087Z,8.87
2017-07-01T04:04:44.244Z,9.90
2017-07-01T04:07:11.040Z,9.07
2017-07-01T04:09:38.146Z,8.20
2017-07-01T04:12:04.946Z,10.30
2017-07-01T04:14:32.559Z,11.30
2017-07-01T04:16:59.616Z,9.70
2017-07-01T04:19:28.507Z,8.40
2017-07-01T04:21:55.870Z,9.97
2017-07-01T04:24:22.755Z,9.10
2017-07-01T04:26:50.537Z,9.00
2017-07-01T04:29:18.119Z,9.80
2017-07-01T04:31:45.317Z,8.53
2017-07-01T04:34:12.196Z,8.57
2017-07-01T04:36:39.679Z,7.20
2017-07-01T04:39:08.800Z,7.37
2017-07-01T04:41:50.547Z,8.30
2017-07-01T04:44:17.588Z,7.23
2017-07-01T04:46:44.821Z,7.27
2017-07-01T04:49:12.108Z,6.97
2017-07-01T04:51:45.132Z,6.23
2017-07-01T04:54:26.986Z,6.33
2017-07-01T04:57:09.562Z,5.30
2017-07-01T04:59:37.538Z,5.57
2017-07-01T05:02:04.353Z,6.10
2017-07-01T05:04:35.023Z,5.47
2017-07-01T05:07:08.096Z,5.70
2017-07-01T05:09:40.933Z,4.33
2017-07-01T05:12:07.988Z,5.10
2017-07-01T05:14:40.686Z,5.50
2017-07-01T05:17:07.485Z,3.87
2017-07-01T05:19:34.274Z,4.90
2017-07-01T05:22:01.942Z,3.10
2017-07-01T05:24:29.904Z,2.07
2017-07-01T05:26:57.245Z,1.60
2017-07-01T05:29:24.381Z,1.67
2017-07-01T05:31:51.434Z,1.30
2017-07-01T05:34:23.927Z,1.30
2017-07-01T05:36:51.370Z,1.30
2017-07-01T05:39:19.348Z,1.60
2017-07-01T05:42:03.744Z,1.80
2017-07-01T05:44:32.308Z,1.73
2017-07-01T05:46:59.112Z,1.30
2017-07-01T05:49:25.982Z,1.33
2017-07-01T05:51:52.777Z,0.93
2017-07-01T05:54:22.634Z,0.80
2017-07-01T05:56:49.732Z,0.97
2017-07-01T05:59:17.259Z,0.93
2017-07-01T06:01:44.313Z,1.27
2017-07-01T06:04:11.149Z,1.50
2017-07-01T06:06:38.567Z,1.87
2017-07-01T06:09:05.616Z,1.60
2017-07-01T06:11:32.448Z,1.73
2017-07-01T06:13:59.820Z,1.70
2017-07-01T06:16:36.539Z,1.97
2017-07-01T06:19:04.432Z,1.93
2017-07-01T06:21:47.553Z,1.87
2017-07-01T06:24:14.604Z,2.40
2017-07-01T06:26:59.087Z,2.53
2017-07-01T06:29:31.677Z,3.97
2017-07-01T06:32:04.417Z,2.37
2017-07-01T06:34:47.913Z,2.60
2017-07-01T06:37:14.928Z,2.87
2017-07-01T06:39:41.701Z,3.00
2017-07-01T06:42:15.654Z,2.67
2017-07-01T06:44:42.445Z,2.60
2017-07-01T06:47:11.120Z,2.60
2017-07-01T06:49:38.755Z,2.67
2017-07-01T06:52:11.684Z,3.57
2017-07-01T06:54:38.505Z,1.90
2017-07-01T06:57:06.274Z,3.60
2017-07-01T06:59:34.054Z,2.20
2017-07-01T07:02:00.896Z,2.83
2017-07-01T07:04:27.861Z,2.50
2017-07-01T07:06:54.905Z,2.10
2017-07-01T07:09:21.761Z,2.30
2017-07-01T07:11:48.541Z,2.30
2017-07-01T07:14:15.736Z,2.00
2017-07-01T07:16:42.557Z,1.90
2017-07-01T07:19:10.113Z,1.60
2017-07-01T07:21:37.784Z,1.47
2017-07-01T07:24:04.628Z,1.40
2017-07-01T07:26:31.435Z,1.60
2017-07-01T07:28:58.245Z,1.50
2017-07-01T07:31:25.107Z,1.60
2017-07-01T07:33:52.160Z,1.30
2017-07-01T07:36:18.970Z,1.60
2017-07-01T07:38:46.088Z,1.70
2017-07-01T07:41:13.614Z,2.00
2017-07-01T07:43:40.679Z,1.90
2017-07-01T07:46:08.079Z,2.33
2017-07-01T07:48:34.871Z,2.37
2017-07-01T07:51:01.635Z,3.40
2017-07-01T07:53:28.900Z,2.80
2017-07-01T07:55:56.149Z,3.30
2017-07-01T07:58:22.921Z,3.03
2017-07-01T08:00:50.129Z,2.47
2017-07-01T08:03:17.142Z,3.17
2017-07-01T08:05:44.361Z,3.10
2017-07-01T08:08:11.173Z,3.20
2017-07-01T08:10:37.989Z,3.17
2017-07-01T08:13:05.520Z,3.73
2017-07-01T08:15:32.571Z,3.40
2017-07-01T08:17:59.626Z,3.70
2017-07-01T08:20:27.294Z,3.50
2017-07-01T08:22:54.086Z,3.77
2017-07-01T08:25:20.838Z,2.57
2017-07-01T08:27:47.838Z,3.33
2017-07-01T08:30:15.625Z,4.10
2017-07-01T08:32:42.398Z,4.00
2017-07-01T08:35:09.660Z,4.27
2017-07-01T08:37:36.873Z,5.17
2017-07-01T08:40:04.418Z,5.90
2017-07-01T08:42:31.217Z,5.33
2017-07-01T08:44:59.136Z,4.87
2017-07-01T08:47:25.934Z,5.20
2017-07-01T08:49:53.467Z,4.70
2017-07-01T08:52:20.518Z,4.60
2017-07-01T08:54:47.274Z,4.53
2017-07-01T08:57:14.317Z,5.27
2017-07-01T08:59:41.207Z,4.83
2017-07-01T09:02:07.983Z,6.07
2017-07-01T09:04:34.742Z,5.93
2017-07-01T09:07:01.917Z,6.27
2017-07-01T09:09:29.433Z,4.03
2017-07-01T09:11:56.190Z,5.33
2017-07-01T09:14:23.212Z,5.63
2017-07-01T09:16:50.523Z,5.37
2017-07-01T09:19:17.681Z,5.67
2017-07-01T09:21:44.487Z,5.37
2017-07-01T09:24:11.242Z,5.77
2017-07-01T09:26:38.536Z,6.47
2017-07-01T09:29:05.528Z,5.60
2017-07-01T09:31:32.983Z,7.23
2017-07-01T09:33:59.737Z,7.47
2017-07-01T09:36:26.865Z,6.00
2017-07-01T09:38:53.915Z,4.60
2017-07-01T09:41:21.577Z,7.37
2017-07-01T09:43:48.633Z,4.70
2017-07-01T09:46:15.398Z,5.83
2017-07-01T09:48:42.182Z,5.90
2017-07-01T09:51:08.979Z,6.53
2017-07-01T09:53:35.922Z,6.87
2017-07-01T09:56:02.979Z,5.20
2017-07-01T09:58:30.150Z,6.03
2017-07-01T10:00:57.391Z,5.70
2017-07-01T10:03:24.443Z,6.47
2017-07-01T10:05:51.285Z,6.20
2017-07-01T10:08:19.042Z,5.50
2017-07-01T10:10:45.828Z,5.93
2017-07-01T10:13:12.690Z,5.50
2017-07-01T10:15:40.198Z,5.50
2017-07-01T10:18:07.009Z,5.60
2017-07-01T10:20:33.949Z,5.30
2017-07-01T10:23:00.721Z,6.00
2017-07-01T10:25:27.517Z,5.43
2017-07-01T10:27:54.931Z,4.73
2017-07-01T10:30:22.032Z,5.47
2017-07-01T10:32:49.695Z,5.70
2017-07-01T10:35:16.573Z,5.37
2017-07-01T10:37:43.629Z,6.80
2017-07-01T10:40:10.854Z,5.20
2017-07-01T10:42:37.916Z,5.63
2017-07-01T10:45:04.963Z,5.50
2017-07-01T10:47:32.022Z,5.07
2017-07-01T10:49:58.896Z,5.80
2017-07-01T10:52:26.730Z,6.07
2017-07-01T10:54:53.876Z,5.03
2017-07-01T10:57:21.146Z,6.27
2017-07-01T10:59:47.910Z,6.67
2017-07-01T11:02:14.950Z,6.07
2017-07-01T11:04:42.191Z,5.47
2017-07-01T11:07:09.195Z,5.87
2017-07-01T11:09:36.414Z,5.57
2017-07-01T11:12:03.297Z,5.77
2017-07-01T11:14:30.377Z,5.73
2017-07-01T11:16:57.405Z,5.50
2017-07-01T11:19:24.783Z,6.40
2017-07-01T11:21:52.164Z,5.97
2017-07-01T11:24:19.307Z,5.37
2017-07-01T11:26:46.129Z,5.90
2017-07-01T11:29:12.973Z,5.20
2017-07-01T11:31:40.308Z,4.90
2017-07-01T11:34:07.109Z,5.03
2017-07-01T11:36:33.993Z,5.10
2017-07-01T11:39:00.769Z,4.90
2017-07-01T11:41:27.794Z,4.93
2017-07-01T11:43:55.019Z,4.20
2017-07-01T11:46:22.207Z,5.13
2017-07-01T11:48:49.089Z,5.13
2017-07-01T11:51:15.861Z,4.90
2017-07-01T11:53:43.068Z,5.33
2017-07-01T11:56:10.579Z,4.83
2017-07-01T11:58:37.973Z,6.07
2017-07-01T12:01:04.762Z,5.03
2017-07-01T12:03:31.929Z,4.80
2017-07-01T12:05:58.940Z,4.50
2017-07-01T12:08:26.643Z,4.80
2017-07-01T12:10:54.239Z,4.70
2017-07-01T12:13:21.326Z,4.70
2017-07-01T12:15:48.098Z,4.73
2017-07-01T12:18:14.957Z,4.73
2017-07-01T12:20:42.324Z,4.60
2017-07-01T12:23:09.098Z,5.20
2017-07-01T12:25:35.897Z,5.47
2017-07-01T12:28:03.159Z,4.00
2017-07-01T12:30:30.391Z,5.70
2017-07-01T12:32:58.180Z,5.90
2017-07-01T12:35:24.942Z,3.50
2017-07-01T12:37:52.165Z,4.27
2017-07-01T12:40:19.227Z,3.87
2017-07-01T12:42:46.013Z,4.10
2017-07-01T12:45:12.840Z,4.50
2017-07-01T12:47:39.655Z,4.77
2017-07-01T12:50:06.509Z,6.70
2017-07-01T12:52:34.174Z,4.47
2017-07-01T12:55:01.447Z,5.00
2017-07-01T12:57:28.589Z,6.83
2017-07-01T12:59:55.346Z,4.90
2017-07-01T13:02:22.142Z,4.57
2017-07-01T13:04:48.958Z,4.47
2017-07-01T13:07:16.190Z,4.10
2017-07-01T13:09:44.351Z,4.40
2017-07-01T13:12:11.870Z,3.67
2017-07-01T13:14:38.653Z,4.07
2017-07-01T13:17:05.933Z,4.40
2017-07-01T13:19:33.069Z,4.27
2017-07-01T13:21:59.845Z,4.23
2017-07-01T13:24:26.658Z,4.40
2017-07-01T13:26:54.079Z,4.23
2017-07-01T13:29:20.870Z,4.00
2017-07-01T13:31:48.398Z,3.83
2017-07-01T13:34:15.765Z,3.80
2017-07-01T13:36:42.537Z,3.90
2017-07-01T13:39:09.549Z,4.10
2017-07-01T13:41:36.748Z,3.80
2017-07-01T13:44:03.514Z,4.13
2017-07-01T13:46:30.763Z,3.53
2017-07-01T13:48:58.003Z,3.77
2017-07-01T13:51:24.783Z,4.40
2017-07-01T13:53:51.592Z,4.20
2017-07-01T13:56:18.783Z,4.13
2017-07-01T13:58:45.837Z,3.60
2017-07-01T14:01:13.200Z,3.37
2017-07-01T14:03:40.082Z,3.87
2017-07-01T14:06:07.303Z,4.10
2017-07-01T14:08:34.098Z,4.00
2017-07-01T14:11:00.874Z,4.20
2017-07-01T14:13:27.673Z,4.27
2017-07-01T14:15:54.901Z,4.13
2017-07-01T14:18:21.680Z,3.90
2017-07-01T14:20:49.056Z,4.17
2017-07-01T14:23:15.858Z,4.37
2017-07-01T14:25:43.963Z,4.20
2017-07-01T14:28:11.087Z,4.33
2017-07-01T14:30:37.897Z,4.30
2017-07-01T14:33:05.195Z,4.00
2017-07-01T14:35:32.324Z,4.00
2017-07-01T14:37:59.870Z,4.40
2017-07-01T14:40:26.793Z,4.20
2017-07-01T14:42:53.555Z,4.10
2017-07-01T14:45:20.765Z,5.40
2017-07-01T14:47:47.819Z,4.37
2017-07-01T14:50:14.872Z,4.90
2017-07-01T14:52:41.669Z,4.80
2017-07-01T14:55:08.432Z,4.93
2017-07-01T14:57:35.249Z,4.83
2017-07-01T15:00:02.473Z,4.07
2017-07-01T15:02:29.522Z,4.70
2017-07-01T15:04:56.282Z,4.00
2017-07-01T15:07:23.095Z,4.00
2017-07-01T15:09:49.855Z,3.70
2017-07-01T15:12:16.811Z,4.37
2017-07-01T15:14:43.723Z,4.50
2017-07-01T15:17:10.921Z,4.33
2017-07-01T15:19:37.694Z,4.00
2017-07-01T15:22:04.506Z,4.60
2017-07-01T15:24:31.271Z,4.80
2017-07-01T15:26:58.335Z,4.23
2017-07-01T15:29:25.133Z,4.13
2017-07-01T15:31:52.403Z,5.00
2017-07-01T15:34:19.985Z,4.50
2017-07-01T15:36:47.217Z,3.93
2017-07-01T15:39:13.994Z,4.70
2017-07-01T15:41:41.147Z,5.40
2017-07-01T15:44:07.957Z,4.40
2017-07-01T15:46:34.717Z,5.03
2017-07-01T15:49:02.237Z,4.80
2017-07-01T15:51:29.663Z,6.40
2017-07-01T15:53:56.716Z,6.13
2017-07-01T15:56:23.959Z,7.03
2017-07-01T15:58:50.802Z,6.97
2017-07-01T16:01:23.709Z,7.47
2017-07-01T16:03:50.502Z,6.17
2017-07-01T16:06:17.259Z,5.43
2017-07-01T16:08:45.118Z,5.07
2017-07-01T16:11:12.067Z,6.07
2017-07-01T16:13:39.809Z,5.70
2017-07-01T16:16:06.773Z,5.37
2017-07-01T16:18:34.271Z,5.30
2017-07-01T16:21:01.042Z,4.60
2017-07-01T16:23:27.805Z,4.60
2017-07-01T16:25:54.854Z,5.13
2017-07-01T16:28:21.618Z,5.13
2017-07-01T16:30:48.491Z,5.03
2017-07-01T16:33:15.614Z,5.03
2017-07-01T16:35:42.758Z,5.00
2017-07-01T16:38:09.736Z,4.80
2017-07-01T16:40:37.074Z,4.87
2017-07-01T16:43:04.462Z,4.63
2017-07-01T16:45:31.935Z,5.70
2017-07-01T16:47:58.750Z,5.60
2017-07-01T16:50:25.794Z,4.63
2017-07-01T16:52:52.847Z,4.80
2017-07-01T16:55:19.899Z,5.40
2017-07-01T16:57:47.441Z,4.77
2017-07-01T17:00:14.236Z,5.17
2017-07-01T17:02:41.365Z,5.13
2017-07-01T17:05:08.419Z,5.30
2017-07-01T17:07:36.124Z,4.57
2017-07-01T17:10:04.674Z,5.40
2017-07-01T17:12:31.727Z,5.00
2017-07-01T17:14:58.483Z,5.17
2017-07-01T17:17:25.529Z,5.23
2017-07-01T17:19:52.583Z,4.70
2017-07-01T17:22:20.099Z,5.40
2017-07-01T17:24:47.130Z,4.90
2017-07-01T17:27:14.578Z,5.90
2017-07-01T17:29:41.895Z,5.77
2017-07-01T17:32:08.896Z,5.40
2017-07-01T17:34:36.006Z,5.27
2017-07-01T17:37:03.181Z,5.37
2017-07-01T17:39:30.704Z,5.03
2017-07-01T17:41:57.808Z,5.30
2017-07-01T17:44:25.242Z,5.33
2017-07-01T17:46:52.312Z,5.73
2017-07-01T17:49:19.369Z,5.60
2017-07-01T17:51:46.154Z,4.90
2017-07-01T17:54:12.962Z,8.80
2017-07-01T17:56:40.217Z,5.60
2017-07-01T17:59:07.102Z,4.70
2017-07-01T18:01:33.933Z,4.87
2017-07-01T18:04:01.688Z,5.80
2017-07-01T18:06:28.462Z,5.53
2017-07-01T18:08:55.258Z,5.80
2017-07-01T18:11:22.226Z,4.93
2017-07-01T18:13:48.990Z,6.00
2017-07-01T18:16:16.223Z,6.13
2017-07-01T18:18:43.968Z,5.33
2017-07-01T18:21:11.400Z,6.37
2017-07-01T18:23:38.197Z,5.40
2017-07-01T18:26:04.969Z,5.90
2017-07-01T18:28:31.905Z,5.70
2017-07-01T18:30:58.711Z,5.90
2017-07-01T18:33:25.553Z,6.07
2017-07-01T18:35:52.322Z,6.63
2017-07-01T18:38:19.814Z,5.70
2017-07-01T18:40:46.865Z,5.40
2017-07-01T18:43:13.618Z,5.27
2017-07-01T18:45:40.410Z,4.83
2017-07-01T18:48:07.177Z,6.07
2017-07-01T18:50:33.988Z,5.20
2017-07-01T18:53:01.626Z,4.53
2017-07-01T18:55:28.705Z,4.67
2017-07-01T18:57:55.930Z,5.10
2017-07-01T19:00:22.756Z,5.27
2017-07-01T19:02:49.532Z,5.00
2017-07-01T19:05:16.614Z,5.60
2017-07-01T19:07:43.450Z,5.30
2017-07-01T19:10:10.232Z,5.10
2017-07-01T19:12:37.161Z,5.13
2017-07-01T19:15:04.619Z,5.03
2017-07-01T19:17:31.741Z,5.40
2017-07-01T19:19:58.524Z,4.43
2017-07-01T19:22:26.264Z,4.33
2017-07-01T19:24:54.020Z,5.00
2017-07-01T19:27:20.805Z,4.00
2017-07-01T19:29:47.757Z,4.60
2017-07-01T19:32:15.493Z,4.37
2017-07-01T19:34:42.481Z,5.50
2017-07-01T19:37:09.701Z,5.90
2017-07-01T19:39:36.477Z,5.03
2017-07-01T19:42:03.999Z,3.50
2017-07-01T19:44:30.794Z,5.17
2017-07-01T19:46:57.569Z,4.70
2017-07-01T19:49:24.584Z,5.00
2017-07-01T19:51:51.441Z,5.60
2017-07-01T19:54:18.207Z,4.93
2017-07-01T19:56:45.305Z,4.27
2017-07-01T19:59:12.558Z,4.23
2017-07-01T20:01:39.412Z,4.37
2017-07-01T20:04:07.987Z,4.63
2017-07-01T20:06:34.881Z,5.47
2017-07-01T20:09:01.637Z,5.47
2017-07-01T20:11:28.762Z,6.20
2017-07-01T20:13:55.931Z,6.00
2017-07-01T20:16:22.937Z,6.60
2017-07-01T20:18:49.733Z,8.40
2017-07-01T20:21:16.983Z,8.50
2017-07-01T20:23:44.493Z,6.00
2017-07-01T20:26:11.744Z,6.60
2017-07-01T20:28:38.558Z,5.80
2017-07-01T20:31:05.586Z,6.30
2017-07-01T20:33:32.404Z,5.20
2017-07-01T20:35:59.801Z,5.83
2017-07-01T20:38:26.585Z,6.57
2017-07-01T20:40:54.089Z,5.23
2017-07-01T20:43:21.166Z,5.50
2017-07-01T20:45:48.209Z,6.20
2017-07-01T20:48:14.992Z,6.43
2017-07-01T20:50:41.800Z,2.63
2017-07-01T20:53:08.965Z,5.70
2017-07-01T20:55:36.731Z,6.03
2017-07-01T20:58:03.782Z,6.60
2017-07-01T21:00:31.042Z,6.50
2017-07-01T21:02:57.806Z,6.20
2017-07-01T21:05:24.871Z,8.60
2017-07-01T21:07:52.082Z,5.90
2017-07-01T21:10:20.051Z,5.90
2017-07-01T21:12:47.821Z,5.50
2017-07-01T21:15:15.369Z,5.53
2017-07-01T21:17:42.165Z,6.20
2017-07-01T21:20:09.103Z,7.50
2017-07-01T21:22:36.154Z,7.47
2017-07-01T21:25:03.211Z,7.13
2017-07-01T21:27:30.019Z,8.20
2017-07-01T21:29:56.837Z,7.70
2017-07-01T21:32:23.621Z,7.63
2017-07-01T21:34:51.238Z,8.43
2017-07-01T21:37:18.612Z,6.60
2017-07-01T21:39:45.832Z,8.20
2017-07-01T21:42:12.886Z,7.70
2017-07-01T21:44:39.654Z,7.77
2017-07-01T21:47:06.509Z,9.17
2017-07-01T21:49:33.927Z,3.17
2017-07-01T21:52:01.103Z,7.70
2017-07-01T21:54:27.984Z,6.80
2017-07-01T21:56:55.153Z,9.60
2017-07-01T21:59:22.097Z,7.50
2017-07-01T22:01:49.588Z,6.60
2017-07-01T22:04:16.670Z,3.30
2017-07-01T22:06:43.726Z,6.20
2017-07-01T22:09:10.534Z,6.97
2017-07-01T22:11:37.356Z,7.00
2017-07-01T22:14:04.416Z,8.17
2017-07-01T22:16:31.460Z,6.40
2017-07-01T22:18:58.681Z,3.97
